createdAt,value
2017-01-06T00:00:14.011Z,85.5
2017-01-06T00:01:20.172Z,85.5
2017-01-06T00:02:26.333Z,85.41
2017-01-06T00:03:30.597Z,85.41
2017-01-06T00:04:35.784Z,85.22
2017-01-06T00:05:40.974Z,85.69
2017-01-06T00:06:45.194Z,85.6
2017-01-06T00:07:50.387Z,85.5
2017-01-06T00:08:56.551Z,85.6
2017-01-06T00:10:02.743Z,85.41
2017-01-06T00:11:08.874Z,85.41
2017-01-06T00:12:15.037Z,85.03
2017-01-06T00:13:20.224Z,85.03
2017-01-06T00:14:25.526Z,85.03
2017-01-06T00:15:31.648Z,85.41
2017-01-06T00:16:36.947Z,85.22
2017-01-06T00:17:42.704Z,85.03
2017-01-06T00:18:48.875Z,85.5
2017-01-06T00:19:53.092Z,85.5
2017-01-06T00:20:56.545Z,85.69
2017-01-06T00:22:02.781Z,85.13
2017-01-06T00:23:06.299Z,85.13
2017-01-06T00:24:11.489Z,85.5
2017-01-06T00:25:16.681Z,85.69
2017-01-06T00:26:21.865Z,85.6
2017-01-06T00:27:26.098Z,85.69
2017-01-06T00:28:30.340Z,85.13
2017-01-06T00:29:35.531Z,85.5
2017-01-06T00:30:39.760Z,85.22
2017-01-06T00:31:43.943Z,85.6
2017-01-06T00:32:50.191Z,85.6
2017-01-06T00:33:54.399Z,85.5
2017-01-06T00:35:00.681Z,85.5
2017-01-06T00:36:06.846Z,85.41
2017-01-06T00:37:11.141Z,85.41
2017-01-06T00:38:17.301Z,86.16
2017-01-06T00:39:21.529Z,85.69
2017-01-06T00:40:25.751Z,86.35
2017-01-06T00:41:29.988Z,86.44
2017-01-06T00:42:35.174Z,86.16
2017-01-06T00:43:40.367Z,86.54
2017-01-06T00:44:45.589Z,86.54
2017-01-06T00:45:49.762Z,86.63
2017-01-06T00:46:53.991Z,86.72
2017-01-06T00:47:59.179Z,86.54
2017-01-06T00:49:05.339Z,86.72
2017-01-06T00:50:09.538Z,86.72
2017-01-06T00:51:15.700Z,86.72
2017-01-06T00:52:20.899Z,86.72
2017-01-06T00:53:27.115Z,86.54
2017-01-06T00:54:31.335Z,86.25
2017-01-06T00:55:36.555Z,86.35
2017-01-06T00:56:41.688Z,86.72
2017-01-06T00:57:47.841Z,86.63
2017-01-06T00:58:53.041Z,87.1
2017-01-06T00:59:57.350Z,87.1
2017-01-06T01:01:02.531Z,87.19
2017-01-06T01:02:07.739Z,87.38
2017-01-06T01:03:13.897Z,87.19
2017-01-06T01:04:20.057Z,86.91
2017-01-06T01:05:25.597Z,87.19
2017-01-06T01:06:30.788Z,87.1
2017-01-06T01:07:35.962Z,87.19
2017-01-06T01:08:40.628Z,87.19
2017-01-06T01:09:44.848Z,87.19
2017-01-06T01:10:51.016Z,87.29
2017-01-06T01:11:56.204Z,87.48
2017-01-06T01:13:02.364Z,87.67
2017-01-06T01:14:07.519Z,87.67
2017-01-06T01:15:12.710Z,87.86
2017-01-06T01:16:18.899Z,88.04
2017-01-06T01:17:25.039Z,88.04
2017-01-06T01:18:30.225Z,87.95
2017-01-06T01:19:34.482Z,87.86
2017-01-06T01:20:39.608Z,87.86
2017-01-06T01:21:43.800Z,87.86
2017-01-06T01:22:48.965Z,87.95
2017-01-06T01:23:53.255Z,88.42
2017-01-06T01:24:58.182Z,88.04
2017-01-06T01:26:02.394Z,88.14
2017-01-06T01:27:08.563Z,88.33
2017-01-06T01:28:13.750Z,88.99
2017-01-06T01:29:17.940Z,88.71
2017-01-06T01:30:24.101Z,88.42
2017-01-06T01:31:29.295Z,88.89
2017-01-06T01:32:34.505Z,88.61
2017-01-06T01:33:39.766Z,88.8
2017-01-06T01:34:44.957Z,88.99
2017-01-06T01:35:50.141Z,88.89
2017-01-06T01:36:55.335Z,88.61
2017-01-06T01:38:01.494Z,88.99
2017-01-06T01:39:07.658Z,88.89
2017-01-06T01:40:13.812Z,88.99
2017-01-06T01:41:19.109Z,88.99
2017-01-06T01:42:23.519Z,88.8
2017-01-06T01:43:28.784Z,88.61
2017-01-06T01:44:34.940Z,88.52
2017-01-06T01:45:40.099Z,88.71
2017-01-06T01:46:46.249Z,88.89
2017-01-06T01:47:52.407Z,88.71
2017-01-06T01:48:57.570Z,88.61
2017-01-06T01:50:02.764Z,88.99
2017-01-06T01:51:08.916Z,88.71
2017-01-06T01:52:15.079Z,88.89
2017-01-06T01:53:21.240Z,88.42
2017-01-06T01:54:23.558Z,88.89
2017-01-06T01:55:29.712Z,89.27
2017-01-06T01:56:34.900Z,88.89
2017-01-06T01:57:41.061Z,88.8
2017-01-06T01:58:45.246Z,88.89
2017-01-06T01:59:51.433Z,88.52
2017-01-06T02:00:57.567Z,88.52
2017-01-06T02:02:02.761Z,88.42
2017-01-06T02:03:08.921Z,88.33
2017-01-06T02:04:14.114Z,89.18
2017-01-06T02:05:20.361Z,89.08
2017-01-06T02:06:25.537Z,88.99
2017-01-06T02:07:29.493Z,88.89
2017-01-06T02:08:35.693Z,89.18
2017-01-06T02:09:40.919Z,88.89
2017-01-06T02:10:46.079Z,89.27
2017-01-06T02:11:50.300Z,89.08
2017-01-06T02:12:54.526Z,89.93
2017-01-06T02:13:59.710Z,89.93
2017-01-06T02:15:03.935Z,89.84
2017-01-06T02:16:09.134Z,90.12
2017-01-06T02:17:15.311Z,89.93
2017-01-06T02:18:19.500Z,89.56
2017-01-06T02:19:23.692Z,90.12
2017-01-06T02:20:29.947Z,89.56
2017-01-06T02:21:34.177Z,89.46
2017-01-06T02:22:40.371Z,89.37
2017-01-06T02:23:46.524Z,88.99
2017-01-06T02:24:51.687Z,89.37
2017-01-06T02:25:54.943Z,89.27
2017-01-06T02:27:00.104Z,89.08
2017-01-06T02:28:04.322Z,89.93
2017-01-06T02:29:10.488Z,89.84
2017-01-06T02:30:16.651Z,90.03
2017-01-06T02:31:22.808Z,89.65
2017-01-06T02:32:27.969Z,89.65
2017-01-06T02:33:33.131Z,89.74
2017-01-06T02:34:38.322Z,89.46
2017-01-06T02:35:41.576Z,89.79
2017-01-06T02:36:46.763Z,89.74
2017-01-06T02:37:52.949Z,89.74
2017-01-06T02:38:57.118Z,90.03
2017-01-06T02:40:03.284Z,89.89
2017-01-06T02:41:09.446Z,90.03
2017-01-06T02:42:15.601Z,90.08
2017-01-06T02:43:21.759Z,90.22
2017-01-06T02:44:26.930Z,90.31
2017-01-06T02:45:33.094Z,90.36
2017-01-06T02:46:39.290Z,90.31
2017-01-06T02:47:43.516Z,90.41
2017-01-06T02:48:49.677Z,90.45
2017-01-06T02:49:54.872Z,90.17
2017-01-06T02:51:01.033Z,89.89
2017-01-06T02:52:07.185Z,90.45
2017-01-06T02:53:11.385Z,90.41
2017-01-06T02:54:16.574Z,90.26
2017-01-06T02:55:20.772Z,90.17
2017-01-06T02:56:25.953Z,90.26
2017-01-06T02:57:31.146Z,90.08
2017-01-06T02:58:33.417Z,90.17
2017-01-06T02:59:39.795Z,90.36
2017-01-06T03:00:45.006Z,90.36
2017-01-06T03:01:51.132Z,90.26
2017-01-06T03:02:56.336Z,89.98
2017-01-06T03:04:01.518Z,90.26
2017-01-06T03:05:07.714Z,90.45
2017-01-06T03:06:13.884Z,90.26
2017-01-06T03:07:20.048Z,90.17
2017-01-06T03:08:26.228Z,90.92
2017-01-06T03:09:32.401Z,90.83
2017-01-06T03:10:37.564Z,90.55
2017-01-06T03:11:40.804Z,91.3
2017-01-06T03:12:45.994Z,91.11
2017-01-06T03:13:52.154Z,90.92
2017-01-06T03:14:56.376Z,90.73
2017-01-06T03:16:02.534Z,91.02
2017-01-06T03:17:08.699Z,90.64
2017-01-06T03:18:12.933Z,90.64
2017-01-06T03:19:19.163Z,90.73
2017-01-06T03:20:23.379Z,90.92
2017-01-06T03:21:28.576Z,91.11
2017-01-06T03:22:32.805Z,90.64
2017-01-06T03:23:38.975Z,91.2
2017-01-06T03:24:44.164Z,90.92
2017-01-06T03:25:50.318Z,91.58
2017-01-06T03:26:55.522Z,91.58
2017-01-06T03:27:59.781Z,91.3
2017-01-06T03:29:02.070Z,91.39
2017-01-06T03:30:07.266Z,91.3
2017-01-06T03:31:13.433Z,91.67
2017-01-06T03:32:17.731Z,91.02
2017-01-06T03:33:23.920Z,91.49
2017-01-06T03:34:29.108Z,91.11
2017-01-06T03:35:33.271Z,91.11
2017-01-06T03:36:38.535Z,91.67
2017-01-06T03:37:44.697Z,91.49
2017-01-06T03:38:49.886Z,91.86
2017-01-06T03:39:56.042Z,91.77
2017-01-06T03:41:02.209Z,91.86
2017-01-06T03:42:07.395Z,91.86
2017-01-06T03:43:13.557Z,91.67
2017-01-06T03:44:18.745Z,91.39
2017-01-06T03:45:22.939Z,91.77
2017-01-06T03:46:29.101Z,91.39
2017-01-06T03:47:34.256Z,92.05
2017-01-06T03:48:40.460Z,92.05
2017-01-06T03:49:46.589Z,91.86
2017-01-06T03:50:51.774Z,91.86
2017-01-06T03:51:55.965Z,91.86
2017-01-06T03:53:02.136Z,91.77
2017-01-06T03:54:08.343Z,91.77
2017-01-06T03:55:12.577Z,91.67
2017-01-06T03:56:18.793Z,92.24
2017-01-06T03:57:24.934Z,92.24
2017-01-06T03:58:30.122Z,92.24
2017-01-06T03:59:34.384Z,92.14
2017-01-06T04:00:40.544Z,92.24
2017-01-06T04:01:45.737Z,92.24
2017-01-06T04:02:50.930Z,92.14
2017-01-06T04:03:57.086Z,92.14
2017-01-06T04:05:03.244Z,92.52
2017-01-06T04:06:09.424Z,92.62
2017-01-06T04:07:12.702Z,92.33
2017-01-06T04:08:18.854Z,92.52
2017-01-06T04:09:24.085Z,92.9
2017-01-06T04:10:28.250Z,92.9
2017-01-06T04:11:34.420Z,92.43
2017-01-06T04:12:40.630Z,92.99
2017-01-06T04:13:45.856Z,92.9
2017-01-06T04:14:51.060Z,93.09
2017-01-06T04:15:56.196Z,92.52
2017-01-06T04:17:02.350Z,92.8
2017-01-06T04:18:06.569Z,92.52
2017-01-06T04:19:11.758Z,92.99
2017-01-06T04:20:15.978Z,92.9
2017-01-06T04:21:20.181Z,92.14
2017-01-06T04:22:23.408Z,92.99
2017-01-06T04:23:29.620Z,92.71
2017-01-06T04:24:35.774Z,92.9
2017-01-06T04:25:40.970Z,92.71
2017-01-06T04:26:47.143Z,92.71
2017-01-06T04:27:52.341Z,92.9
2017-01-06T04:28:56.563Z,92.71
2017-01-06T04:30:01.759Z,92.99
2017-01-06T04:31:07.967Z,92.71
2017-01-06T04:32:13.164Z,92.62
2017-01-06T04:33:18.353Z,92.62
2017-01-06T04:34:23.594Z,92.43
2017-01-06T04:35:29.743Z,92.8
2017-01-06T04:36:35.901Z,92.8
2017-01-06T04:37:42.054Z,92.71
2017-01-06T04:38:46.250Z,92.71
2017-01-06T04:39:52.402Z,92.52
2017-01-06T04:40:58.553Z,92.62
2017-01-06T04:42:03.747Z,92.9
2017-01-06T04:43:07.969Z,92.52
2017-01-06T04:44:12.315Z,92.99
2017-01-06T04:45:18.478Z,92.71
2017-01-06T04:46:23.678Z,92.43
2017-01-06T04:47:28.871Z,92.62
2017-01-06T04:48:33.058Z,92.24
2017-01-06T04:49:39.217Z,92.24
2017-01-06T04:50:44.408Z,92.24
2017-01-06T04:51:49.642Z,92.71
2017-01-06T04:52:54.853Z,92.43
2017-01-06T04:53:59.071Z,92.71
2017-01-06T04:55:02.383Z,92.71
2017-01-06T04:56:07.572Z,92.62
2017-01-06T04:57:12.817Z,92.99
2017-01-06T04:58:17.044Z,92.99
2017-01-06T04:59:23.309Z,92.52
2017-01-06T05:00:29.488Z,92.99
2017-01-06T05:01:34.672Z,92.9
2017-01-06T05:02:40.830Z,93.18
2017-01-06T05:03:46.062Z,93.18
2017-01-06T05:04:50.225Z,92.8
2017-01-06T05:05:56.382Z,92.9
2017-01-06T05:07:01.569Z,92.9
2017-01-06T05:08:04.826Z,92.8
2017-01-06T05:09:09.043Z,92.99
2017-01-06T05:10:15.199Z,92.8
2017-01-06T05:11:20.389Z,92.71
2017-01-06T05:12:26.568Z,92.99
2017-01-06T05:13:31.732Z,92.8
2017-01-06T05:14:35.953Z,92.71
2017-01-06T05:15:42.112Z,93.09
2017-01-06T05:16:47.299Z,92.99
2017-01-06T05:17:51.607Z,92.71
2017-01-06T05:18:55.092Z,92.8
2017-01-06T05:19:59.366Z,92.62
2017-01-06T05:21:05.488Z,92.71
2017-01-06T05:22:11.654Z,92.71
2017-01-06T05:23:16.816Z,92.62
2017-01-06T05:24:22.053Z,92.71
2017-01-06T05:25:28.170Z,92.9
2017-01-06T05:26:33.375Z,92.99
2017-01-06T05:27:39.526Z,92.33
2017-01-06T05:28:44.693Z,92.24
2017-01-06T05:29:48.916Z,92.52
2017-01-06T05:30:55.071Z,92.33
2017-01-06T05:32:00.260Z,91.96
2017-01-06T05:33:05.418Z,92.33
2017-01-06T05:34:11.725Z,91.96
2017-01-06T05:35:17.847Z,91.58
2017-01-06T05:36:23.087Z,91.77
2017-01-06T05:37:29.248Z,91.67
2017-01-06T05:38:34.431Z,91.49
2017-01-06T05:39:39.618Z,92.05
2017-01-06T05:40:43.852Z,90.83
2017-01-06T05:41:49.041Z,91.02
2017-01-06T05:42:54.224Z,91.02
2017-01-06T05:43:59.438Z,90.92
2017-01-06T05:45:03.650Z,91.11
2017-01-06T05:46:08.837Z,91.86
2017-01-06T05:47:13.996Z,91.49
2017-01-06T05:48:20.157Z,91.67
2017-01-06T05:49:25.336Z,91.77
2017-01-06T05:50:26.609Z,91.77
2017-01-06T05:51:32.767Z,91.67
2017-01-06T05:52:37.962Z,91.49
2017-01-06T05:53:44.130Z,91.11
2017-01-06T05:54:50.297Z,90.73
2017-01-06T05:55:56.450Z,90.92
2017-01-06T05:57:01.639Z,90.92
2017-01-06T05:58:06.830Z,90.83
2017-01-06T05:59:13.031Z,91.2
2017-01-06T06:00:18.341Z,91.3
2017-01-06T06:01:22.535Z,91.39
2017-01-06T06:02:27.732Z,91.58
2017-01-06T06:03:33.891Z,91.67
2017-01-06T06:04:39.078Z,91.77
2017-01-06T06:05:43.295Z,91.77
2017-01-06T06:06:47.504Z,91.86
2017-01-06T06:07:53.671Z,91.39
2017-01-06T06:08:57.864Z,91.67
2017-01-06T06:10:03.050Z,91.58
2017-01-06T06:11:07.273Z,91.86
2017-01-06T06:12:12.441Z,91.77
2017-01-06T06:13:17.631Z,91.2
2017-01-06T06:14:22.837Z,91.58
2017-01-06T06:15:28.015Z,91.3
2017-01-06T06:16:33.199Z,91.2
2017-01-06T06:17:37.424Z,91.86
2017-01-06T06:18:42.604Z,91.96
2017-01-06T06:19:48.841Z,91.77
2017-01-06T06:20:52.102Z,92.05
2017-01-06T06:21:57.293Z,92.14
2017-01-06T06:23:03.449Z,92.43
2017-01-06T06:24:09.609Z,92.14
2017-01-06T06:25:15.770Z,92.14
2017-01-06T06:26:21.939Z,92.43
2017-01-06T06:27:27.138Z,92.52
2017-01-06T06:28:31.327Z,92.9
2017-01-06T06:29:36.506Z,92.33
2017-01-06T06:30:42.801Z,92.62
2017-01-06T06:32:54.823Z,92.62
2017-01-06T06:33:59.981Z,92.52
2017-01-06T06:35:05.143Z,92.71
2017-01-06T06:36:11.303Z,92.43
2017-01-06T06:37:15.541Z,92.33
2017-01-06T06:38:20.717Z,92.62
2017-01-06T06:39:26.880Z,92.52
2017-01-06T06:40:33.104Z,92.24
2017-01-06T06:41:38.330Z,92.24
2017-01-06T06:42:43.560Z,91.72
2017-01-06T06:43:48.874Z,91.72
2017-01-06T06:44:55.102Z,91.91
2017-01-06T06:45:59.240Z,90.88
2017-01-06T06:47:03.555Z,91.11
2017-01-06T06:48:08.743Z,90.97
2017-01-06T06:49:13.940Z,91.35
2017-01-06T06:50:20.101Z,91.06
2017-01-06T06:51:26.269Z,91.16
2017-01-06T06:52:32.417Z,90.88
2017-01-06T06:53:38.578Z,90.78
2017-01-06T06:54:44.778Z,90.78
2017-01-06T06:55:50.933Z,91.25
2017-01-06T06:56:56.128Z,91.02
2017-01-06T06:58:00.322Z,90.97
2017-01-06T06:59:06.474Z,91.25
2017-01-06T07:00:11.664Z,90.88
2017-01-06T07:01:16.854Z,90.73
2017-01-06T07:02:21.087Z,90.83
2017-01-06T07:03:27.257Z,91.16
2017-01-06T07:04:33.407Z,91.16
2017-01-06T07:05:37.628Z,90.88
2017-01-06T07:06:43.787Z,90.41
2017-01-06T07:07:50.055Z,90.31
2017-01-06T07:08:55.212Z,90.41
2017-01-06T07:10:01.405Z,90.59
2017-01-06T07:11:06.559Z,90.12
2017-01-06T07:12:12.725Z,90.41
2017-01-06T07:13:17.925Z,90.12
2017-01-06T07:14:22.217Z,90.97
2017-01-06T07:15:27.447Z,90.78
2017-01-06T07:16:32.668Z,90.69
2017-01-06T07:17:38.828Z,90.5
2017-01-06T07:18:44.983Z,90.12
2017-01-06T07:19:49.162Z,89.84
2017-01-06T07:20:54.569Z,89.65
2017-01-06T07:21:58.851Z,89.84
2017-01-06T07:23:05.014Z,89.08
2017-01-06T07:24:08.244Z,89.08
2017-01-06T07:25:14.403Z,89.08
2017-01-06T07:26:19.613Z,89.27
2017-01-06T07:28:27.060Z,89.37
2017-01-06T07:29:33.239Z,89.27
2017-01-06T07:30:39.390Z,89.46
2017-01-06T07:31:44.589Z,89.46
2017-01-06T07:32:50.755Z,89.46
2017-01-06T07:33:55.926Z,90.03
2017-01-06T07:35:01.097Z,89.84
2017-01-06T07:36:05.337Z,90.5
2017-01-06T07:37:10.535Z,90.22
2017-01-06T07:38:13.762Z,90.41
2017-01-06T07:39:17.989Z,90.22
2017-01-06T07:40:24.190Z,90.41
2017-01-06T07:41:28.352Z,90.22
2017-01-06T07:42:32.570Z,90.22
2017-01-06T07:43:37.759Z,90.41
2017-01-06T07:44:42.951Z,89.79
2017-01-06T07:45:49.178Z,89.98
2017-01-06T07:46:54.353Z,90.17
2017-01-06T07:48:00.507Z,90.97
2017-01-06T07:49:06.661Z,91.06
2017-01-06T07:50:10.854Z,91.06
2017-01-06T07:51:16.041Z,91.16
2017-01-06T07:52:22.208Z,90.69
2017-01-06T07:53:27.462Z,90.69
2017-01-06T07:54:31.689Z,91.16
2017-01-06T07:55:37.851Z,91.25
2017-01-06T07:56:44.025Z,91.06
2017-01-06T07:57:49.176Z,90.97
2017-01-06T07:58:55.327Z,91.16
2017-01-06T08:00:01.574Z,91.35
2017-01-06T08:01:06.669Z,90.88
2017-01-06T08:02:11.871Z,90.31
2017-01-06T08:03:17.052Z,90.59
2017-01-06T08:04:21.290Z,89.84
2017-01-06T08:05:27.463Z,90.03
2017-01-06T08:06:32.671Z,89.93
2017-01-06T08:07:38.823Z,89.56
2017-01-06T08:08:45.010Z,90.03
2017-01-06T08:09:51.168Z,89.84
2017-01-06T08:10:56.332Z,89.37
2017-01-06T08:12:02.497Z,88.99
2017-01-06T08:13:08.668Z,88.99
2017-01-06T08:14:13.872Z,89.88
2017-01-06T08:15:18.085Z,89.98
2017-01-06T08:16:24.225Z,89.32
2017-01-06T08:17:30.385Z,88.7
2017-01-06T08:18:36.563Z,85.68
2017-01-06T08:19:41.760Z,84.74
2017-01-06T08:20:47.931Z,83.84
2017-01-06T08:21:53.121Z,82.32
2017-01-06T08:22:56.363Z,82.89
2017-01-06T08:24:01.536Z,78.74
2017-01-06T08:25:03.792Z,75.43
2017-01-06T08:26:09.956Z,75.05
2017-01-06T08:27:15.147Z,74.15
2017-01-06T08:28:19.347Z,73.39
2017-01-06T08:29:23.605Z,72.36
2017-01-06T08:30:28.767Z,71.5
2017-01-06T08:31:32.029Z,69.71
2017-01-06T08:32:37.274Z,69.37
2017-01-06T08:33:43.434Z,68.9
2017-01-06T08:34:48.724Z,69.27
2017-01-06T08:35:53.884Z,68.33
2017-01-06T08:36:58.101Z,66.44
2017-01-06T08:38:03.292Z,64.54
2017-01-06T08:39:09.456Z,64.48
2017-01-06T08:40:14.657Z,64.29
2017-01-06T08:41:20.939Z,62.88
2017-01-06T08:42:26.238Z,62.21
2017-01-06T08:43:32.408Z,61.99
2017-01-06T08:44:36.668Z,62.37
2017-01-06T08:45:40.832Z,63.89
2017-01-06T08:46:46.007Z,64.32
2017-01-06T08:47:51.255Z,65.84
2017-01-06T08:48:56.556Z,66.18
2017-01-06T08:50:02.700Z,67.32
2017-01-06T08:51:07.993Z,69.11
2017-01-06T08:52:13.229Z,69.86
2017-01-06T08:53:18.347Z,70.9
2017-01-06T08:54:23.599Z,71.43
2017-01-06T08:55:29.761Z,71.72
2017-01-06T08:56:35.926Z,72.38
2017-01-06T08:57:41.183Z,73.51
2017-01-06T08:58:45.358Z,73.79
2017-01-06T08:59:51.528Z,73.88
2017-01-06T09:00:57.799Z,74.36
2017-01-06T09:02:02.996Z,74.26
2017-01-06T09:03:09.232Z,74.3
2017-01-06T09:04:15.396Z,73.93
2017-01-06T09:05:19.689Z,72.51
2017-01-06T09:06:24.870Z,71.22
2017-01-06T09:07:30.066Z,69.24
2017-01-06T09:08:36.238Z,67.35
2017-01-06T09:09:42.420Z,65.68
2017-01-06T09:10:48.573Z,64.54
2017-01-06T09:11:52.849Z,63.7
2017-01-06T09:12:57.066Z,62.66
2017-01-06T09:14:02.232Z,62.31
2017-01-06T09:15:08.440Z,61.36
2017-01-06T09:16:11.721Z,61.18
2017-01-06T09:17:17.887Z,60.7
2017-01-06T09:18:23.091Z,60.77
2017-01-06T09:19:29.249Z,61.15
2017-01-06T09:20:34.449Z,62.18
2017-01-06T09:21:37.731Z,62.72
2017-01-06T09:22:43.895Z,64.04
2017-01-06T09:23:50.072Z,65.36
2017-01-06T09:24:54.274Z,66.03
2017-01-06T09:25:58.500Z,66.69
2017-01-06T09:27:03.709Z,66.31
2017-01-06T09:28:09.871Z,65.55
2017-01-06T09:29:16.031Z,65.65
2017-01-06T09:30:19.295Z,65.08
2017-01-06T09:31:23.628Z,65.65
2017-01-06T09:32:27.856Z,65.55
2017-01-06T09:33:34.020Z,66.12
2017-01-06T09:34:38.922Z,66.94
2017-01-06T09:35:45.097Z,68.54
2017-01-06T09:36:50.293Z,69.39
2017-01-06T09:37:55.505Z,69.86
2017-01-06T09:39:00.668Z,69.39
2017-01-06T09:40:06.843Z,68.67
2017-01-06T09:41:12.143Z,68.35
2017-01-06T09:42:17.341Z,68.16
2017-01-06T09:43:20.658Z,68.73
2017-01-06T09:44:23.891Z,68.82
2017-01-06T09:45:28.120Z,69.77
2017-01-06T09:46:31.379Z,69.58
2017-01-06T09:47:37.540Z,70.05
2017-01-06T09:48:42.702Z,70.72
2017-01-06T09:49:47.877Z,70.62
2017-01-06T09:50:53.072Z,70.37
2017-01-06T09:51:59.236Z,69.43
2017-01-06T09:53:05.416Z,68.48
2017-01-06T09:54:11.577Z,68.39
2017-01-06T09:55:17.783Z,66.97
2017-01-06T09:56:22.945Z,66.69
2017-01-06T09:57:29.105Z,66.78
2017-01-06T09:58:35.272Z,66.16
2017-01-06T09:59:41.450Z,65.87
2017-01-06T10:00:47.671Z,64.83
2017-01-06T10:01:51.903Z,64.83
2017-01-06T10:02:56.152Z,64.98
2017-01-06T10:04:01.345Z,64.89
2017-01-06T10:05:04.672Z,65.46
2017-01-06T10:06:09.870Z,65.55
2017-01-06T10:07:15.083Z,65.93
2017-01-06T10:08:20.211Z,66.5
2017-01-06T10:09:26.375Z,66.78
2017-01-06T10:10:32.543Z,66.72
2017-01-06T10:11:38.706Z,65.62
2017-01-06T10:12:40.975Z,63.54
2017-01-06T10:13:46.169Z,62.15
2017-01-06T10:14:50.395Z,60.64
2017-01-06T10:15:56.559Z,58.59
2017-01-06T10:17:00.765Z,55.94
2017-01-06T10:18:05.047Z,54.74
2017-01-06T10:19:11.250Z,53.88
2017-01-06T10:20:17.427Z,52.65
2017-01-06T10:21:22.624Z,52.72
2017-01-06T10:22:26.833Z,54.21
2017-01-06T10:23:32.030Z,54.3
2017-01-06T10:24:38.200Z,54.9
2017-01-06T10:25:44.412Z,54.99
2017-01-06T10:26:50.582Z,54.23
2017-01-06T10:27:55.753Z,53.97
2017-01-06T10:29:01.921Z,53.09
2017-01-06T10:30:08.100Z,52.56
2017-01-06T10:31:13.306Z,52.46
2017-01-06T10:32:18.477Z,52.08
2017-01-06T10:33:24.640Z,51.89
2017-01-06T10:34:29.850Z,50.95
2017-01-06T10:35:35.056Z,50.95
2017-01-06T10:36:39.365Z,50.66
2017-01-06T10:37:44.563Z,51.04
2017-01-06T10:38:49.771Z,50.76
2017-01-06T10:39:55.939Z,50.95
2017-01-06T10:41:01.103Z,51.61
2017-01-06T10:42:07.271Z,51.8
2017-01-06T10:43:11.501Z,51.87
2017-01-06T10:44:17.662Z,52.06
2017-01-06T10:45:21.855Z,53.28
2017-01-06T10:46:28.025Z,54.77
2017-01-06T10:47:33.194Z,56.35
2017-01-06T10:48:39.358Z,57.58
2017-01-06T10:49:43.601Z,58.65
2017-01-06T10:50:47.888Z,58.91
2017-01-06T10:51:54.055Z,59.47
2017-01-06T10:53:00.222Z,59.57
2017-01-06T10:54:05.430Z,60.23
2017-01-06T10:55:09.632Z,60.33
2017-01-06T10:56:13.862Z,60.33
2017-01-06T10:57:19.164Z,60.33
2017-01-06T10:58:24.509Z,60.33
2017-01-06T10:59:30.730Z,60.04
2017-01-06T11:00:35.927Z,59.66
2017-01-06T11:01:41.129Z,59.85
2017-01-06T11:02:46.371Z,59.66
2017-01-06T11:03:52.572Z,59.66
2017-01-06T11:04:58.744Z,60.14
2017-01-06T11:06:03.014Z,59.85
2017-01-06T11:07:07.254Z,60.8
2017-01-06T11:08:12.464Z,61.46
2017-01-06T11:09:18.623Z,61.27
2017-01-06T11:10:22.887Z,61.18
2017-01-06T11:11:28.080Z,61.27
2017-01-06T11:12:32.366Z,61.36
2017-01-06T11:13:37.560Z,61.9
2017-01-06T11:14:42.808Z,62.56
2017-01-06T11:15:48.010Z,62.66
2017-01-06T11:16:54.175Z,63.98
2017-01-06T11:17:59.346Z,64.07
2017-01-06T11:19:05.525Z,64.54
2017-01-06T11:20:11.690Z,64.64
2017-01-06T11:21:17.922Z,65.21
2017-01-06T11:22:21.254Z,65.02
2017-01-06T11:23:24.464Z,65.11
2017-01-06T11:24:29.750Z,65.55
2017-01-06T11:25:35.922Z,66.31
2017-01-06T11:26:39.157Z,66.69
2017-01-06T11:27:44.364Z,67.44
2017-01-06T11:28:48.608Z,67.25
2017-01-06T11:29:54.734Z,66.97
2017-01-06T11:30:58.968Z,67.63
2017-01-06T11:32:04.156Z,68.29
2017-01-06T11:33:10.370Z,68.48
2017-01-06T11:34:14.574Z,68.29
2017-01-06T11:35:19.769Z,68.48
2017-01-06T11:36:25.933Z,68.2
2017-01-06T11:37:32.097Z,68.01
2017-01-06T11:38:36.351Z,68.2
2017-01-06T11:39:41.522Z,68.2
2017-01-06T11:40:45.755Z,68.2
2017-01-06T11:41:49.624Z,67.91
2017-01-06T11:42:52.898Z,68.01
2017-01-06T11:43:58.090Z,67.35
2017-01-06T11:45:04.265Z,68.01
2017-01-06T11:46:08.491Z,68.1
2017-01-06T11:47:13.689Z,68.01
2017-01-06T11:48:19.849Z,67.82
2017-01-06T11:49:24.120Z,67.35
2017-01-06T11:50:28.321Z,67.54
2017-01-06T11:51:33.590Z,67.16
2017-01-06T11:52:38.781Z,67.35
2017-01-06T11:53:44.014Z,67.82
2017-01-06T11:54:50.157Z,67.44
2017-01-06T11:55:55.327Z,67.66
2017-01-06T11:56:58.584Z,67.19
2017-01-06T11:58:03.786Z,66.16
2017-01-06T11:59:09.944Z,65.68
2017-01-06T12:00:16.102Z,65.3
2017-01-06T12:01:21.319Z,64.64
2017-01-06T12:02:27.491Z,64.64
2017-01-06T12:03:32.755Z,64.73
2017-01-06T12:04:37.019Z,65.11
2017-01-06T12:05:42.208Z,65.59
2017-01-06T12:06:47.407Z,64.92
2017-01-06T12:07:53.568Z,65.21
2017-01-06T12:08:59.723Z,63.89
2017-01-06T12:10:05.892Z,64.07
2017-01-06T12:11:12.103Z,63.89
2017-01-06T12:12:17.401Z,64.36
2017-01-06T12:13:21.851Z,64.23
2017-01-06T12:14:28.010Z,65.27
2017-01-06T12:15:34.190Z,64.89
2017-01-06T12:16:39.376Z,64.42
2017-01-06T12:17:44.577Z,64.7
2017-01-06T12:18:48.801Z,64.61
2017-01-06T12:19:54.001Z,65.36
2017-01-06T12:20:58.258Z,65.36
2017-01-06T12:22:03.430Z,65.84
2017-01-06T12:23:09.597Z,65.36
2017-01-06T12:24:14.794Z,65.36
2017-01-06T12:25:19.987Z,65.74
2017-01-06T12:26:25.176Z,65.27
2017-01-06T12:27:30.378Z,65.65
2017-01-06T12:28:36.618Z,65.84
2017-01-06T12:29:41.816Z,66.18
2017-01-06T12:30:46.043Z,66.84
2017-01-06T12:31:52.202Z,67.5
2017-01-06T12:32:56.434Z,67.6
2017-01-06T12:34:02.595Z,68.35
2017-01-06T12:35:07.793Z,68.26
2017-01-06T12:36:13.004Z,68.92
2017-01-06T12:37:17.229Z,69.58
2017-01-06T12:38:21.456Z,69.67
2017-01-06T12:39:26.647Z,69.58
2017-01-06T12:40:31.842Z,69.67
2017-01-06T12:41:37.034Z,69.67
2017-01-06T12:42:42.228Z,69.67
2017-01-06T12:43:46.483Z,69.96
2017-01-06T12:44:48.752Z,69.77
2017-01-06T12:45:54.997Z,70.43
2017-01-06T12:47:00.227Z,70.81
2017-01-06T12:48:06.351Z,70.24
2017-01-06T12:49:11.539Z,70.72
2017-01-06T12:50:14.788Z,70.9
2017-01-06T12:51:20.951Z,70.81
2017-01-06T12:52:27.121Z,71.37
2017-01-06T12:53:33.277Z,71.94
2017-01-06T12:54:39.441Z,71.47
2017-01-06T12:55:45.615Z,71.37
2017-01-06T12:56:51.777Z,71.37
2017-01-06T12:57:57.994Z,71.47
2017-01-06T12:59:02.223Z,71.75
2017-01-06T13:00:06.450Z,71.56
2017-01-06T13:01:12.640Z,71.56
2017-01-06T13:02:16.840Z,71.84
2017-01-06T13:03:22.173Z,71.75
2017-01-06T13:04:28.343Z,71.94
2017-01-06T13:05:33.609Z,71.37
2017-01-06T13:06:39.800Z,71.94
2017-01-06T13:07:44.024Z,71.94
2017-01-06T13:08:49.209Z,71.94
2017-01-06T13:09:52.440Z,72.13
2017-01-06T13:10:56.668Z,72.22
2017-01-06T13:12:02.834Z,71.56
2017-01-06T13:13:08.995Z,71.94
2017-01-06T13:14:12.213Z,71.09
2017-01-06T13:15:17.442Z,70.62
2017-01-06T13:16:23.608Z,70.34
2017-01-06T13:17:28.804Z,70.62
2017-01-06T13:18:33.969Z,70.43
2017-01-06T13:19:38.190Z,70.62
2017-01-06T13:20:44.347Z,70.9
2017-01-06T13:21:50.507Z,69.39
2017-01-06T13:22:55.764Z,69.77
2017-01-06T13:24:00.967Z,70.05
2017-01-06T13:25:07.155Z,70.05
2017-01-06T13:26:12.334Z,69.67
2017-01-06T13:27:17.541Z,69.67
2017-01-06T13:28:22.741Z,69.3
2017-01-06T13:29:28.914Z,68.54
2017-01-06T13:30:35.069Z,68.07
2017-01-06T13:31:39.466Z,67.88
2017-01-06T13:32:44.622Z,67.41
2017-01-06T13:33:49.827Z,66.84
2017-01-06T13:34:55.006Z,66.84
2017-01-06T13:36:00.218Z,66.94
2017-01-06T13:37:05.449Z,67.41
2017-01-06T13:38:10.642Z,67.03
2017-01-06T13:39:14.877Z,66.84
2017-01-06T13:40:19.120Z,66.75
2017-01-06T13:41:24.318Z,66.18
2017-01-06T13:42:28.509Z,66.56
2017-01-06T13:43:34.669Z,66.28
2017-01-06T13:44:37.979Z,66.28
2017-01-06T13:45:41.210Z,66.56
2017-01-06T13:46:46.406Z,66.94
2017-01-06T13:47:52.571Z,67.22
2017-01-06T13:48:58.756Z,67.32
2017-01-06T13:50:02.975Z,67.5
2017-01-06T13:51:07.254Z,67.41
2017-01-06T13:52:11.454Z,67.32
2017-01-06T13:53:17.627Z,66.84
2017-01-06T13:54:23.778Z,66.84
2017-01-06T13:55:29.004Z,66.84
2017-01-06T13:56:33.233Z,66.84
2017-01-06T13:57:36.516Z,66.84
2017-01-06T13:58:41.718Z,66.84
2017-01-06T13:59:45.941Z,67.03
2017-01-06T14:00:50.153Z,67.13
2017-01-06T14:01:54.362Z,67.88
2017-01-06T14:02:59.555Z,67.79
2017-01-06T14:04:03.885Z,67.69
2017-01-06T14:05:08.110Z,67.88